• Join FlightAware (Why Join?)
  • Login
  • US Flag 
10:28PM EDT


 

Airport Tracker/Info


-or-


 

Live Flight TrackerFlight Track Log ✈ JLG821 ✈ 08-May-2013 ✈ KIAD - KPGV

Flight Track Log - Related Links

Times and Time Zones

All times are in EDT time to prevent confusion due to time zone crossing. See the JLG821 flight status page for this flight to view local times or setup timezone preferences in your user account.

Time Position Orientation Groundspeed Altitude Reporting Facility
EDT Latitude Longitude Course Direction KTS MPH feet Rate Location/Type
02:34PM 38.9167 -77.5333 235° Southwest 166 191 2,300  Level Potomac TRACON
02:35PM 38.9000 -77.5833 247° West 176 203 3,900 1,740 Climbing Potomac TRACON
02:36PM 38.8894 -77.6478 258° West 172 198 5,700 1,740 Climbing Washington Center
02:37PM 38.8742 -77.6981 249° West 172 198 7,500 1,620 Climbing Washington Center
02:38PM 38.8444 -77.7211 211° Southwest 156 180 9,000 1,560 Climbing Washington Center
02:39PM 38.6305 -77.8551 235° Southwest  Level FlightAware Approximate
02:39PM 38.7958 -77.7597 212° Southwest 164 189 10,700  Level Washington Center
02:40PM 38.7517 -77.7825 202° Southwest 175 201 12,400 1,560 Climbing Washington Center
02:41PM 38.7136 -77.8081 208° Southwest 175 201 13,800 1,140 Climbing Washington Center
02:42PM 38.6694 -77.8411 210° Southwest 180 207 14,800 960 Climbing Washington Center
02:43PM 38.6247 -77.8822 216° Southwest 185 213 15,800 600 Climbing Washington Center
02:44PM 38.5881 -77.9397 231° Southwest 197 227 16,000 60 Climbing Washington Center
02:45PM 38.5472 -78.0100 233° Southwest 227 261 16,000  Level Washington Center
02:46PM 38.5183 -78.0914 246° West 245 282 16,000  Level Washington Center
02:47PM 38.4958 -78.1781 252° West 252 290 16,000 120 Level Washington Center
02:48PM 38.4647 -78.2592 244° Southwest 258 297 16,300 480 Climbing Washington Center
02:49PM 38.4217 -78.3239 230° Southwest 253 291 17,000 600 Climbing Washington Center
02:50PM 38.3575 -78.3058 168° South 207 238 17,600 480 Climbing Washington Center
02:51PM 38.2931 -78.2847 166° South 212 244 18,000 180 Climbing Washington Center
02:52PM 38.2269 -78.2586 163° South 233 268 18,000  Level Washington Center
02:53PM 38.1567 -78.2325 164° South 245 282 18,000  Level Washington Center
02:54PM 38.0906 -78.2064 163° South 251 289 18,000  Level Washington Center
02:55PM 38.0203 -78.1775 162° South 261 300 18,000  Level Washington Center
02:56PM 37.9458 -78.1433 160° South 272 313 18,000  Level Washington Center
02:57PM 37.8756 -78.1119 161° South 272 313 18,000  Level Washington Center
02:58PM 37.8011 -78.0886 166° South 272 313 18,000  Level Washington Center
02:59PM 37.7286 -78.0678 167° South 272 313 18,000  Level Washington Center
03:00PM 37.6558 -78.0469 167° South 272 313 18,000  Level Washington Center
03:01PM 37.5833 -78.0317 171° South 277 319 18,000  Level Washington Center
03:02PM 37.5086 -78.0083 166° South 277 319 18,000  Level Washington Center
03:03PM 37.4361 -77.9903 169° South 277 319 18,000  Level Washington Center
03:04PM 37.3636 -77.9619 163° South 277 319 18,000  Level Washington Center
03:05PM 37.2911 -77.9336 163° South 277 319 18,000  Level Washington Center
03:06PM 37.2208 -77.8975 158° South 277 319 18,000  Level Washington Center
03:07PM 37.1567 -77.8719 162° South 282 325 18,000  Level Washington Center
03:08PM 37.0842 -77.8386 160° South 282 325 18,000  Level Washington Center
03:09PM 37.0097 -77.8156 166° South 282 325 18,000  Level Washington Center
03:10PM 36.9411 -77.7931 165° South 277 319 18,000  Level Washington Center
03:11PM 36.8664 -77.7725 168° South 277 319 18,000 -240 Level Washington Center
03:12PM 36.7958 -77.7525 167° South 277 319 17,600 -540 Descending Washington Center
03:13PM 36.7211 -77.7322 168° South 272 313 17,000 -600 Descending Washington Center
03:14PM 36.6506 -77.7122 167° South 272 313 16,400 -540 Descending Washington Center
03:15PM 36.5800 -77.6947 169° South 272 313 16,000 -360 Descending Washington Center
03:16PM 36.5072 -77.6772 169° South 272 313 15,700 -600 Descending Washington Center
03:17PM 36.4347 -77.6547 166° South 272 313 14,900 -780 Descending Washington Center
03:18PM 36.3619 -77.6400 171° South 272 313 14,200 -900 Descending Washington Center
03:19PM 36.2911 -77.6200 167° South 272 313 13,200 -1,080 Descending Washington Center
03:20PM 36.2206 -77.5975 166° South 272 313 12,100 -1,140 Descending Washington Center
03:21PM 36.1503 -77.5625 158° South 272 313 11,000 -600 Descending Washington Center
03:22PM 36.0819 -77.5300 159° South 267 307 10,900  Descending Washington Center
03:23PM 36.0156 -77.5000 160° South 261 300 11,000 -300 Climbing Washington Center
03:24PM 35.9556 -77.4831 167° South 251 289 10,400 -1,080 Descending Washington Center
03:25PM 35.8908 -77.4714 172° South 240 276 8,900 -1,800 Descending Washington Center
03:26PM 35.8267 -77.4544 168° South 235 270 6,800 -2,100 Descending Washington Center